createdAt,value
2022-09-03T00:04:14.614Z,0
2022-09-03T00:14:58.580Z,0
2022-09-03T00:20:15.738Z,0
2022-09-03T00:25:32.937Z,0
2022-09-03T00:30:50.590Z,0
2022-09-03T00:36:11.362Z,0
2022-09-03T00:41:28.814Z,0
2022-09-03T00:46:46.248Z,0
2022-09-03T00:52:03.493Z,0
2022-09-03T00:57:20.740Z,0
2022-09-03T01:02:41.168Z,0
2022-09-03T01:07:58.651Z,0
2022-09-03T01:13:15.920Z,0
2022-09-03T01:18:33.287Z,0
2022-09-03T01:23:50.610Z,0
2022-09-03T01:29:07.931Z,0
2022-09-03T01:34:25.261Z,0
2022-09-03T01:39:42.524Z,0
2022-09-03T01:44:59.971Z,0
2022-09-03T01:50:17.120Z,0
2022-09-03T01:55:34.419Z,0
2022-09-03T02:00:52.037Z,0
2022-09-03T02:06:09.338Z,0
2022-09-03T02:11:26.719Z,0
2022-09-03T02:16:43.899Z,0
2022-09-03T02:22:01.354Z,0
2022-09-03T02:27:18.486Z,0
2022-09-03T02:32:35.645Z,0
2022-09-03T02:37:53.228Z,0
2022-09-03T02:43:10.696Z,0
2022-09-03T02:48:27.832Z,0
2022-09-03T02:53:45.385Z,0
2022-09-03T02:59:02.819Z,0
2022-09-03T03:04:20.321Z,0
2022-09-03T03:09:37.668Z,0
2022-09-03T03:14:55.024Z,0
2022-09-03T03:20:12.385Z,0
2022-09-03T03:25:36.930Z,0
2022-09-03T03:30:54.593Z,0
2022-09-03T03:36:12.025Z,0
2022-09-03T03:41:29.222Z,0
2022-09-03T03:46:52.120Z,0
2022-09-03T03:52:09.516Z,0
2022-09-03T03:57:26.850Z,0
2022-09-03T04:08:01.256Z,0
2022-09-03T04:13:24.945Z,0.1
2022-09-03T04:18:42.674Z,0.8
2022-09-03T04:23:59.660Z,2.6
2022-09-03T04:29:16.896Z,7.9
2022-09-03T04:34:33.826Z,21.2
2022-09-03T04:39:51.141Z,55.4
2022-09-03T04:45:08.210Z,113.3
2022-09-03T04:50:25.046Z,198.3
2022-09-03T04:55:42.108Z,308.8
2022-09-03T05:00:59.013Z,449.6
2022-09-03T05:06:16.036Z,619.6
2022-09-03T05:11:32.982Z,811.2
2022-09-03T05:16:52.647Z,1024.6
2022-09-03T05:22:09.800Z,1287.1
2022-09-03T05:27:26.897Z,1526.7
2022-09-03T05:32:43.925Z,1907.9
2022-09-03T05:38:00.729Z,2400
2022-09-03T05:43:17.866Z,3016.3
2022-09-03T05:48:35.181Z,3787.1
2022-09-03T05:53:52.424Z,4385
2022-09-03T05:59:09.525Z,4718.7
2022-09-03T06:04:34.075Z,4616.7
2022-09-03T06:09:51.754Z,4972.9
2022-09-03T06:15:08.734Z,5730.8
2022-09-03T06:20:36.384Z,6432.5
2022-09-03T06:25:54.278Z,6991.2
2022-09-03T06:31:11.691Z,7685.4
2022-09-03T06:36:29.845Z,7925.4
2022-09-03T06:41:47.097Z,8464.6
2022-09-03T06:47:04.130Z,8364.6
2022-09-03T06:52:42.195Z,7950.8
2022-09-03T06:57:59.667Z,8580
2022-09-03T07:03:16.891Z,10920
2022-09-03T07:08:34.472Z,12412.1
2022-09-03T07:13:54.292Z,9420
2022-09-03T07:19:11.042Z,8368.7
2022-09-03T07:24:27.895Z,8502.1
2022-09-03T07:29:45.833Z,17756.2
2022-09-03T07:35:04.215Z,18247.1
2022-09-03T07:40:24.709Z,19418.3
2022-09-03T07:45:43.000Z,20804.2
2022-09-03T07:51:00.502Z,20924.2
2022-09-03T07:56:17.913Z,21525.8
2022-09-03T08:01:34.859Z,23510.4
2022-09-03T08:06:52.401Z,25978.7
2022-09-03T08:12:09.871Z,23239.6
2022-09-03T08:17:25.762Z,12447.9
2022-09-03T08:22:41.051Z,13647.9
2022-09-03T08:27:58.890Z,24956.2
2022-09-03T08:33:16.958Z,25755.8
2022-09-03T08:38:35.283Z,25697.5
2022-09-03T08:43:52.767Z,29234.2
2022-09-03T08:49:10.161Z,31215
2022-09-03T08:54:27.916Z,32468.3
2022-09-03T08:59:43.893Z,12120.8
2022-09-03T09:04:58.324Z,9775
2022-09-03T09:10:14.267Z,12062.1
2022-09-03T09:15:31.201Z,14284.2
2022-09-03T09:26:14.761Z,19932.5
2022-09-03T09:31:33.175Z,20943.3
2022-09-03T09:36:50.763Z,22902.9
2022-09-03T09:42:07.877Z,21559.6
2022-09-03T09:47:24.927Z,22767.5
2022-09-03T09:52:42.694Z,23973.8
2022-09-03T09:58:00.226Z,27311.7
2022-09-03T10:03:16.929Z,23867.1
2022-09-03T10:08:34.409Z,24990.8
2022-09-03T10:13:56.150Z,24168.3
2022-09-03T10:19:13.402Z,30636.7
2022-09-03T10:41:19.793Z,24544.6
2022-09-03T10:46:37.485Z,35161.7
2022-09-03T10:51:55.666Z,32469.2
2022-09-03T11:02:25.188Z,44641.7
2022-09-03T11:13:06.667Z,50213.7
2022-09-03T11:18:24.827Z,46213.3
2022-09-03T11:47:50.642Z,41805.8
2022-09-03T11:59:06.952Z,40284.2
2022-09-03T12:04:24.132Z,39541.7
2022-09-03T12:21:18.519Z,35930.8
2022-09-03T12:26:35.381Z,36015
2022-09-03T12:31:51.639Z,37015
2022-09-03T12:37:08.544Z,35414.2
2022-09-03T12:42:28.368Z,36688.3
2022-09-03T12:53:19.696Z,35554.2
2022-09-03T13:40:29.526Z,23119.2
2022-09-03T13:58:47.083Z,20628.7
2022-09-03T14:22:14.449Z,7606.3
2022-09-03T14:27:29.789Z,7441.7
2022-09-03T14:45:04.206Z,6366.2
2022-09-03T14:50:21.005Z,6441.7
2022-09-03T14:55:38.882Z,5442.5
2022-09-03T15:00:55.519Z,4862.9
2022-09-03T15:06:12.209Z,4020.4
2022-09-03T15:11:28.887Z,3581.3
2022-09-03T15:16:45.753Z,3227.9
2022-09-03T15:22:02.638Z,3130.8
2022-09-03T15:27:19.387Z,2757.5
2022-09-03T15:32:35.809Z,2567.9
2022-09-03T15:38:10.077Z,2662.1
2022-09-03T15:48:43.623Z,3831.3
2022-09-03T16:47:51.143Z,5192.9
2022-09-03T16:53:08.075Z,4297.5
2022-09-03T17:03:43.288Z,2712.5
2022-09-03T17:09:29.439Z,2155
2022-09-03T17:14:46.545Z,1859.6
2022-09-03T17:20:03.579Z,1657.5
2022-09-03T17:25:21.081Z,1411.7
2022-09-03T17:30:37.754Z,1307.5
2022-09-03T17:35:57.766Z,1212.1
2022-09-03T17:41:14.559Z,1089.6
2022-09-03T17:46:31.333Z,954.2
2022-09-03T17:51:48.340Z,715.4
2022-09-03T17:57:05.248Z,581.2
2022-09-03T18:02:22.098Z,419.2
2022-09-03T18:07:39.963Z,288.3
2022-09-03T18:18:16.813Z,120
2022-09-03T18:23:33.851Z,67.1
2022-09-03T18:28:50.706Z,32.5
2022-09-03T18:34:07.975Z,14.6
2022-09-03T18:39:27.924Z,5.5
2022-09-03T18:44:45.192Z,2
2022-09-03T18:50:03.635Z,0.7
2022-09-03T18:55:20.972Z,0.1
2022-09-03T19:00:40.993Z,0
2022-09-03T19:06:05.549Z,0
2022-09-03T19:11:22.842Z,0
2022-09-03T19:16:40.472Z,0
2022-09-03T19:21:59.910Z,0
2022-09-03T19:27:47.639Z,0
2022-09-03T19:33:09.617Z,0
2022-09-03T19:38:31.485Z,0
2022-09-03T19:43:49.218Z,0
2022-09-03T19:49:06.656Z,0
2022-09-03T19:59:44.508Z,0
2022-09-03T20:05:04.585Z,0
2022-09-03T20:10:21.731Z,0
2022-09-03T20:15:38.964Z,0
2022-09-03T20:20:58.214Z,0
2022-09-03T20:26:15.424Z,0
2022-09-03T20:31:38.114Z,0
2022-09-03T20:36:57.344Z,0
2022-09-03T20:47:35.924Z,0
2022-09-03T20:52:53.561Z,0
2022-09-03T20:58:10.717Z,0
2022-09-03T21:03:32.362Z,0
2022-09-03T21:08:49.619Z,0
2022-09-03T21:14:06.724Z,0
2022-09-03T21:19:26.749Z,0
2022-09-03T21:24:44.209Z,0
2022-09-03T21:30:02.019Z,0
2022-09-03T21:35:19.592Z,0
2022-09-03T21:40:36.901Z,0
2022-09-03T21:45:56.609Z,0
2022-09-03T21:51:14.002Z,0
2022-09-03T21:56:31.232Z,0
2022-09-03T22:01:48.990Z,0
2022-09-03T22:07:06.465Z,0
2022-09-03T22:12:23.927Z,0
2022-09-03T22:17:41.307Z,0
2022-09-03T22:22:58.808Z,0
2022-09-03T22:28:21.093Z,0
2022-09-03T22:33:44.899Z,0
2022-09-03T22:39:02.437Z,0
2022-09-03T22:44:19.744Z,0
2022-09-03T22:49:37.052Z,0
2022-09-03T22:54:54.328Z,0
2022-09-03T23:00:11.678Z,0
2022-09-03T23:05:31.080Z,0
2022-09-03T23:10:48.401Z,0
2022-09-03T23:16:05.572Z,0
2022-09-03T23:21:22.868Z,0
2022-09-03T23:26:40.107Z,0
2022-09-03T23:31:57.563Z,0
2022-09-03T23:37:32.845Z,0
2022-09-03T23:42:51.987Z,0
2022-09-03T23:48:10.610Z,0
2022-09-03T23:53:28.127Z,0
2022-09-03T23:58:45.753Z,0
